createdAt,value
2024-03-18T00:00:25.161Z,18.81
2024-03-18T00:01:25.250Z,18.81
2024-03-18T00:02:25.360Z,18.81
2024-03-18T00:03:25.450Z,18.81
2024-03-18T00:04:25.554Z,18.81
2024-03-18T00:05:25.654Z,18.81
2024-03-18T00:06:25.757Z,18.81
2024-03-18T00:07:25.841Z,18.81
2024-03-18T00:08:25.960Z,18.81
2024-03-18T00:09:26.063Z,18.81
2024-03-18T00:10:26.155Z,18.80
2024-03-18T00:11:26.261Z,18.81
2024-03-18T00:12:26.355Z,18.80
2024-03-18T00:13:26.438Z,18.80
2024-03-18T00:14:26.540Z,18.80
2024-03-18T00:15:26.636Z,18.80
2024-03-18T00:16:26.748Z,18.80
2024-03-18T00:17:26.834Z,18.80
2024-03-18T00:18:26.944Z,18.81
2024-03-18T00:19:27.037Z,18.80
2024-03-18T00:20:27.143Z,18.80
2024-03-18T00:21:27.239Z,18.80
2024-03-18T00:22:27.353Z,18.80
2024-03-18T00:23:27.439Z,18.80
2024-03-18T00:24:27.533Z,18.80
2024-03-18T00:25:27.630Z,18.79
2024-03-18T00:26:27.724Z,18.80
2024-03-18T00:27:27.809Z,18.80
2024-03-18T00:28:27.916Z,18.79
2024-03-18T00:29:28.004Z,18.80
2024-03-18T00:30:28.120Z,18.79
2024-03-18T00:31:28.204Z,18.80
2024-03-18T00:32:28.314Z,18.79
2024-03-18T00:33:28.408Z,18.79
2024-03-18T00:34:28.508Z,18.80
2024-03-18T00:35:28.608Z,18.80
2024-03-18T00:36:28.712Z,18.80
2024-03-18T00:37:28.812Z,18.80
2024-03-18T00:38:28.917Z,18.80
2024-03-18T00:39:29.021Z,18.80
2024-03-18T00:40:29.137Z,18.80
2024-03-18T00:41:29.216Z,18.80
2024-03-18T00:42:29.332Z,18.80
2024-03-18T00:43:29.432Z,18.80
2024-03-18T00:44:29.517Z,18.80
2024-03-18T00:45:29.622Z,18.80
2024-03-18T00:46:29.722Z,18.79
2024-03-18T00:47:29.824Z,18.79
2024-03-18T00:48:29.920Z,18.79
2024-03-18T00:49:30.003Z,18.79
2024-03-18T00:50:30.114Z,18.79
2024-03-18T00:51:30.207Z,18.79
2024-03-18T00:52:30.314Z,18.80
2024-03-18T00:53:30.395Z,18.79
2024-03-18T00:54:30.497Z,18.79
2024-03-18T00:55:30.601Z,18.78
2024-03-18T00:56:30.717Z,18.79
2024-03-18T00:57:30.803Z,18.79
2024-03-18T00:58:30.893Z,18.79
2024-03-18T00:59:30.984Z,18.78
2024-03-18T01:00:31.095Z,18.79
2024-03-18T01:01:31.193Z,18.78
2024-03-18T01:02:31.300Z,18.79
2024-03-18T01:03:31.382Z,18.78
2024-03-18T01:04:31.488Z,18.79
2024-03-18T01:05:31.588Z,18.79
2024-03-18T01:06:31.686Z,18.78
2024-03-18T01:07:31.801Z,18.79
2024-03-18T01:08:31.897Z,18.79
2024-03-18T01:09:32.008Z,18.78
2024-03-18T01:10:32.101Z,18.78
2024-03-18T01:11:32.189Z,18.79
2024-03-18T01:12:32.300Z,18.79
2024-03-18T01:13:32.410Z,18.79
2024-03-18T01:14:32.519Z,18.79
2024-03-18T01:15:32.616Z,18.79
2024-03-18T01:16:32.728Z,18.79
2024-03-18T01:17:32.822Z,18.78
2024-03-18T01:18:32.934Z,18.78
2024-03-18T01:19:33.038Z,18.79
2024-03-18T01:20:33.152Z,18.78
2024-03-18T01:21:33.245Z,18.78
2024-03-18T01:22:33.355Z,18.78
2024-03-18T01:23:33.457Z,18.77
2024-03-18T01:24:33.573Z,18.78
2024-03-18T01:25:33.676Z,18.78
2024-03-18T01:26:33.782Z,18.78
2024-03-18T01:27:33.874Z,18.78
2024-03-18T01:28:34.002Z,18.78
2024-03-18T01:29:34.075Z,18.78
2024-03-18T01:30:34.194Z,18.77
2024-03-18T01:31:34.280Z,18.78
2024-03-18T01:32:34.386Z,18.78
2024-03-18T01:33:34.487Z,18.78
2024-03-18T01:34:34.591Z,18.78
2024-03-18T01:35:34.685Z,18.77
2024-03-18T01:36:34.798Z,18.78
2024-03-18T01:37:34.903Z,18.77
2024-03-18T01:38:35.009Z,18.78
2024-03-18T01:39:35.111Z,18.78
2024-03-18T01:40:35.195Z,18.77
2024-03-18T01:41:35.299Z,18.77
2024-03-18T01:42:35.413Z,18.77
2024-03-18T01:43:35.520Z,18.77
2024-03-18T01:44:35.618Z,18.77
2024-03-18T01:45:35.714Z,18.77
2024-03-18T01:46:37.710Z,18.78
2024-03-18T01:47:35.873Z,18.77
2024-03-18T01:48:35.925Z,18.77
2024-03-18T01:49:35.955Z,18.77
2024-03-18T01:50:36.018Z,18.77
2024-03-18T01:51:36.047Z,18.77
2024-03-18T01:52:36.096Z,18.77
2024-03-18T01:53:36.137Z,18.77
2024-03-18T01:54:36.215Z,18.77
2024-03-18T01:55:36.315Z,18.77
2024-03-18T01:56:36.420Z,18.78
2024-03-18T01:57:36.594Z,18.77
2024-03-18T01:58:36.646Z,18.76
2024-03-18T01:59:36.738Z,18.77
2024-03-18T02:00:36.945Z,18.77
2024-03-18T02:01:36.944Z,18.77
2024-03-18T02:02:37.060Z,18.77
2024-03-18T02:03:37.168Z,18.77
2024-03-18T02:04:37.272Z,18.77
2024-03-18T02:05:37.382Z,18.76
2024-03-18T02:06:37.492Z,18.77
2024-03-18T02:07:37.582Z,18.76
2024-03-18T02:08:37.702Z,18.76
2024-03-18T02:09:37.787Z,18.77
2024-03-18T02:10:37.936Z,18.77
2024-03-18T02:11:38.017Z,18.77
2024-03-18T02:12:38.139Z,18.77
2024-03-18T02:13:38.221Z,18.77
2024-03-18T02:14:38.338Z,18.76
2024-03-18T02:15:38.449Z,18.77
2024-03-18T02:16:38.591Z,18.77
2024-03-18T02:17:38.645Z,18.77
2024-03-18T02:18:38.773Z,18.77
2024-03-18T02:19:38.863Z,18.77
2024-03-18T02:20:38.969Z,18.77
2024-03-18T02:21:39.082Z,18.76
2024-03-18T02:22:39.208Z,18.76
2024-03-18T02:23:39.294Z,18.76
2024-03-18T02:24:39.406Z,18.76
2024-03-18T02:25:39.496Z,18.76
2024-03-18T02:26:39.627Z,18.76
2024-03-18T02:27:39.730Z,18.76
2024-03-18T02:28:39.829Z,18.76
2024-03-18T02:29:39.936Z,18.76
2024-03-18T02:30:40.054Z,18.75
2024-03-18T02:31:40.149Z,18.76
2024-03-18T02:32:40.247Z,18.76
2024-03-18T02:33:40.369Z,18.75
2024-03-18T02:34:40.504Z,18.76
2024-03-18T02:35:40.563Z,18.76
2024-03-18T02:36:40.685Z,18.75
2024-03-18T02:37:40.785Z,18.75
2024-03-18T02:38:40.899Z,18.75
2024-03-18T02:39:41.000Z,18.76
2024-03-18T02:40:41.117Z,18.75
2024-03-18T02:41:41.211Z,18.76
2024-03-18T02:42:41.332Z,18.75
2024-03-18T02:43:41.429Z,18.75
2024-03-18T02:44:41.565Z,18.75
2024-03-18T02:45:41.642Z,18.75
2024-03-18T02:46:41.756Z,18.75
2024-03-18T02:47:41.896Z,18.75
2024-03-18T02:48:41.973Z,18.75
2024-03-18T02:49:42.071Z,18.75
2024-03-18T02:50:42.191Z,18.76
2024-03-18T02:51:42.293Z,18.76
2024-03-18T02:52:42.408Z,18.75
2024-03-18T02:53:42.493Z,18.75
2024-03-18T02:54:42.624Z,18.75
2024-03-18T02:55:42.726Z,18.75
2024-03-18T02:56:42.824Z,18.75
2024-03-18T02:57:42.931Z,18.75
2024-03-18T02:58:43.068Z,18.74
2024-03-18T02:59:43.168Z,18.74
2024-03-18T03:00:43.286Z,18.75
2024-03-18T03:01:43.366Z,18.74
2024-03-18T03:02:43.473Z,18.75
2024-03-18T03:03:43.588Z,18.74
2024-03-18T03:04:43.696Z,18.74
2024-03-18T03:05:43.796Z,18.75
2024-03-18T03:06:43.922Z,18.74
2024-03-18T03:07:46.538Z,18.74
2024-03-18T03:08:44.025Z,18.74
2024-03-18T03:09:44.025Z,18.74
2024-03-18T03:10:44.032Z,18.75
2024-03-18T03:11:44.033Z,18.74
2024-03-18T03:12:44.047Z,18.75
2024-03-18T03:13:44.048Z,18.75
2024-03-18T03:14:44.051Z,18.75
2024-03-18T03:15:44.044Z,18.74
2024-03-18T03:16:44.034Z,18.74
2024-03-18T03:17:44.036Z,18.74
2024-03-18T03:18:44.049Z,18.74
2024-03-18T03:19:44.034Z,18.74
2024-03-18T03:20:44.055Z,18.74
2024-03-18T03:21:44.041Z,18.74
2024-03-18T03:22:44.063Z,18.74
2024-03-18T03:23:44.051Z,18.75
2024-03-18T03:24:44.056Z,18.74
2024-03-18T03:25:44.046Z,18.74
2024-03-18T03:26:44.062Z,18.74
2024-03-18T03:27:44.081Z,18.74
2024-03-18T03:28:44.098Z,18.74
2024-03-18T03:29:44.091Z,18.74
2024-03-18T03:30:44.102Z,18.75
2024-03-18T03:31:44.080Z,18.74
2024-03-18T03:32:44.092Z,18.74
2024-03-18T03:33:44.089Z,18.74
2024-03-18T03:34:44.097Z,18.74
2024-03-18T03:35:44.102Z,18.74
2024-03-18T03:36:44.106Z,18.73
2024-03-18T03:37:44.114Z,18.74
2024-03-18T03:38:44.094Z,18.74
2024-03-18T03:39:44.128Z,18.74
2024-03-18T03:40:44.113Z,18.74
2024-03-18T03:41:44.186Z,18.74
2024-03-18T03:42:44.290Z,18.74
2024-03-18T03:43:44.404Z,18.74
2024-03-18T03:44:44.513Z,18.73
2024-03-18T03:45:44.633Z,18.74
2024-03-18T03:46:44.728Z,18.74
2024-03-18T03:47:44.841Z,18.73
2024-03-18T03:48:44.972Z,18.73
2024-03-18T03:49:45.065Z,18.72
2024-03-18T03:50:45.169Z,18.73
2024-03-18T03:51:45.284Z,18.73
2024-03-18T03:52:45.404Z,18.73
2024-03-18T03:53:45.511Z,18.72
2024-03-18T03:54:45.607Z,18.73
2024-03-18T03:55:45.730Z,18.73
2024-03-18T03:56:45.823Z,18.72
2024-03-18T03:57:45.932Z,18.72
2024-03-18T03:58:46.043Z,18.73
2024-03-18T03:59:46.154Z,18.73
2024-03-18T04:00:46.260Z,18.72
2024-03-18T04:01:46.376Z,18.73
2024-03-18T04:02:46.476Z,18.73
2024-03-18T04:03:46.591Z,18.73
2024-03-18T04:04:46.693Z,18.73
2024-03-18T04:05:46.807Z,18.73
2024-03-18T04:06:46.914Z,18.72
2024-03-18T04:07:47.030Z,18.73
2024-03-18T04:08:47.136Z,18.72
2024-03-18T04:09:47.260Z,18.71
2024-03-18T04:10:47.355Z,18.71
2024-03-18T04:11:47.466Z,18.72
2024-03-18T04:12:47.568Z,18.72
2024-03-18T04:13:47.682Z,18.71
2024-03-18T04:14:47.795Z,18.71
2024-03-18T04:15:47.937Z,18.71
2024-03-18T04:16:48.029Z,18.71
2024-03-18T04:17:48.144Z,18.72
2024-03-18T04:18:48.240Z,18.71
2024-03-18T04:19:48.354Z,18.72
2024-03-18T04:20:48.579Z,18.72
2024-03-18T04:21:48.586Z,18.72
2024-03-18T04:22:48.677Z,18.71
2024-03-18T04:23:48.785Z,18.71
2024-03-18T04:24:48.886Z,18.71
2024-03-18T04:25:48.999Z,18.71
2024-03-18T04:26:49.106Z,18.71
2024-03-18T04:27:49.221Z,18.71
2024-03-18T04:28:49.325Z,18.71
2024-03-18T04:29:49.444Z,18.72
2024-03-18T04:30:49.554Z,18.71
2024-03-18T04:31:49.671Z,18.71
2024-03-18T04:32:49.778Z,18.71
2024-03-18T04:33:49.888Z,18.71
2024-03-18T04:34:49.991Z,18.71
2024-03-18T04:35:50.126Z,18.71
2024-03-18T04:36:50.230Z,18.71
2024-03-18T04:37:50.342Z,18.71
2024-03-18T04:38:50.469Z,18.70
2024-03-18T04:39:50.599Z,18.70
2024-03-18T04:40:50.690Z,18.71
2024-03-18T04:41:50.801Z,18.71
2024-03-18T04:42:50.909Z,18.71
2024-03-18T04:43:51.020Z,18.71
2024-03-18T04:44:51.131Z,18.70
2024-03-18T04:45:51.245Z,18.71
2024-03-18T04:46:51.354Z,18.70
2024-03-18T04:47:51.472Z,18.70
2024-03-18T04:48:51.584Z,18.70
2024-03-18T04:49:51.727Z,18.70
2024-03-18T04:50:51.825Z,18.70
2024-03-18T04:51:51.941Z,18.70
2024-03-18T04:52:52.056Z,18.70
2024-03-18T04:53:52.184Z,18.69
2024-03-18T04:54:52.284Z,18.70
2024-03-18T04:55:52.433Z,18.70
2024-03-18T04:56:52.520Z,18.70
2024-03-18T04:57:52.634Z,18.69
2024-03-18T04:58:52.740Z,18.70
2024-03-18T04:59:52.850Z,18.70
2024-03-18T05:00:52.959Z,18.70
2024-03-18T05:01:53.095Z,18.69
2024-03-18T05:02:53.182Z,18.70
2024-03-18T05:03:53.303Z,18.69
2024-03-18T05:04:53.436Z,18.70
2024-03-18T05:05:53.531Z,18.69
2024-03-18T05:06:53.641Z,18.69
2024-03-18T05:07:53.780Z,18.69
2024-03-18T05:09:01.373Z,18.66
2024-03-18T05:10:01.408Z,18.68
2024-03-18T05:11:01.449Z,18.68
2024-03-18T05:12:01.487Z,18.69
2024-03-18T05:13:01.557Z,18.69
2024-03-18T05:14:01.572Z,18.69
2024-03-18T05:15:01.596Z,18.69
2024-03-18T05:16:01.617Z,18.69
2024-03-18T05:17:01.651Z,18.69
2024-03-18T05:18:01.744Z,18.69
2024-03-18T05:19:01.854Z,18.69
2024-03-18T05:20:02.078Z,18.69
2024-03-18T05:21:02.096Z,18.69
2024-03-18T05:22:02.186Z,18.69
2024-03-18T05:23:02.320Z,18.68
2024-03-18T05:24:04.793Z,18.68
2024-03-18T05:25:02.508Z,18.68
2024-03-18T05:26:02.522Z,18.69
2024-03-18T05:27:02.560Z,18.68
2024-03-18T05:28:02.601Z,18.69
2024-03-18T05:29:02.624Z,18.68
2024-03-18T05:30:02.684Z,18.68
2024-03-18T05:31:02.661Z,18.69
2024-03-18T05:32:02.699Z,18.68
2024-03-18T05:33:02.798Z,18.68
2024-03-18T05:34:03.782Z,18.67
2024-03-18T05:35:03.043Z,18.69
2024-03-18T05:36:03.235Z,18.68
2024-03-18T05:37:03.273Z,18.68
2024-03-18T05:38:03.411Z,18.70
2024-03-18T05:39:03.537Z,18.70
2024-03-18T05:40:03.654Z,18.69
2024-03-18T05:41:03.765Z,18.69
2024-03-18T05:42:03.871Z,18.69
2024-03-18T05:43:03.984Z,18.70
2024-03-18T05:44:04.095Z,18.71
2024-03-18T05:45:04.213Z,18.70
2024-03-18T05:46:04.346Z,18.70
2024-03-18T05:47:04.435Z,18.70
2024-03-18T05:48:06.742Z,18.71
2024-03-18T05:49:04.560Z,18.70
2024-03-18T05:50:04.565Z,18.70
2024-03-18T05:51:04.571Z,18.70
2024-03-18T05:52:04.561Z,18.70
2024-03-18T05:53:04.553Z,18.70
2024-03-18T05:54:04.564Z,18.70
2024-03-18T05:55:04.564Z,18.70
2024-03-18T05:56:04.579Z,18.70
2024-03-18T05:57:04.567Z,18.70
2024-03-18T05:58:04.581Z,18.70
2024-03-18T05:59:04.573Z,18.70
2024-03-18T06:00:04.575Z,18.70
2024-03-18T06:01:04.594Z,18.70
2024-03-18T06:02:04.580Z,18.70
2024-03-18T06:03:04.580Z,18.70
2024-03-18T06:04:04.601Z,18.70
2024-03-18T06:05:04.593Z,18.70
2024-03-18T06:06:04.621Z,18.70
2024-03-18T06:07:04.600Z,18.70
2024-03-18T06:08:04.603Z,18.70
2024-03-18T06:09:04.596Z,18.70
2024-03-18T06:10:04.623Z,18.70
2024-03-18T06:11:04.604Z,18.70
2024-03-18T06:12:04.615Z,18.70
2024-03-18T06:13:04.612Z,18.70
2024-03-18T06:14:04.627Z,18.70
2024-03-18T06:15:04.608Z,18.70
2024-03-18T06:16:06.455Z,18.70
2024-03-18T06:17:04.617Z,18.70
2024-03-18T06:18:04.623Z,18.70
2024-03-18T06:19:04.620Z,18.70
2024-03-18T06:20:04.694Z,18.70
2024-03-18T06:21:04.696Z,18.70
2024-03-18T06:22:04.804Z,18.70
2024-03-18T06:23:04.933Z,18.71
2024-03-18T06:24:05.021Z,18.70
2024-03-18T06:25:05.129Z,18.70
2024-03-18T06:26:05.241Z,18.70
2024-03-18T06:27:05.361Z,18.70
2024-03-18T06:28:05.465Z,18.70
2024-03-18T06:29:05.565Z,18.70
2024-03-18T06:30:05.684Z,18.70
2024-03-18T06:31:05.801Z,18.70
2024-03-18T06:32:05.932Z,18.70
2024-03-18T06:33:06.023Z,18.70
2024-03-18T06:34:06.133Z,18.70
2024-03-18T06:35:06.238Z,18.70
2024-03-18T06:36:06.381Z,18.70
2024-03-18T06:37:06.478Z,18.70
2024-03-18T06:38:06.580Z,18.70
2024-03-18T06:39:06.691Z,18.70
2024-03-18T06:40:07.800Z,18.70
2024-03-18T06:41:06.839Z,18.70
2024-03-18T06:42:06.891Z,18.69
2024-03-18T06:43:06.909Z,18.70
2024-03-18T06:44:06.963Z,18.71
2024-03-18T06:45:06.990Z,18.70
2024-03-18T06:46:07.129Z,18.70
2024-03-18T06:47:07.233Z,18.70
2024-03-18T06:48:07.340Z,18.70
2024-03-18T06:49:07.502Z,18.70
2024-03-18T06:50:07.579Z,18.69
2024-03-18T06:51:07.680Z,18.70
2024-03-18T06:52:07.793Z,18.70
2024-03-18T06:53:07.902Z,18.70
2024-03-18T06:54:08.037Z,18.70
2024-03-18T06:55:08.141Z,18.70
2024-03-18T06:56:08.252Z,18.70
2024-03-18T06:57:08.359Z,18.71
2024-03-18T06:58:08.476Z,18.71
2024-03-18T06:59:08.585Z,18.71
2024-03-18T07:00:08.702Z,18.71
2024-03-18T07:01:08.803Z,18.71
2024-03-18T07:02:08.919Z,18.70
2024-03-18T07:03:09.029Z,18.71
2024-03-18T07:04:09.159Z,18.72
2024-03-18T07:05:09.287Z,18.76
2024-03-18T07:06:09.407Z,18.81
2024-03-18T07:07:09.497Z,18.87
2024-03-18T07:08:09.625Z,18.91
2024-03-18T07:09:09.701Z,18.95
2024-03-18T07:10:09.800Z,19.00
2024-03-18T07:11:09.895Z,19.05
2024-03-18T07:12:10.008Z,19.10
2024-03-18T07:13:10.071Z,19.15
2024-03-18T07:14:10.146Z,19.21
2024-03-18T07:15:10.213Z,19.24
2024-03-18T07:16:10.298Z,19.27
2024-03-18T07:17:10.356Z,19.30
2024-03-18T07:18:10.414Z,19.35
2024-03-18T07:19:10.461Z,19.40
2024-03-18T07:20:15.396Z,19.42
2024-03-18T07:21:11.515Z,19.45
2024-03-18T07:22:10.562Z,19.49
2024-03-18T07:23:10.527Z,19.52
2024-03-18T07:24:10.522Z,19.56
2024-03-18T07:25:10.548Z,19.57
2024-03-18T07:26:10.533Z,19.60
2024-03-18T07:27:10.543Z,19.62
2024-03-18T07:28:10.547Z,19.65
2024-03-18T07:29:10.538Z,19.65
2024-03-18T07:30:10.544Z,19.68
2024-03-18T07:31:10.618Z,19.70
2024-03-18T07:32:10.581Z,19.72
2024-03-18T07:33:10.551Z,19.75
2024-03-18T07:34:10.592Z,19.76
2024-03-18T07:35:15.623Z,19.78
2024-03-18T07:36:11.674Z,19.77
2024-03-18T07:37:10.624Z,19.79
2024-03-18T07:38:15.311Z,19.79
2024-03-18T07:39:11.634Z,19.79
2024-03-18T07:40:10.670Z,19.81
2024-03-18T07:41:10.653Z,19.82
2024-03-18T07:42:10.649Z,19.82
2024-03-18T07:43:10.646Z,19.84
2024-03-18T07:45:10.645Z,19.87
2024-03-18T07:46:10.664Z,19.89
2024-03-18T07:47:10.689Z,19.88
2024-03-18T07:48:10.779Z,19.90
2024-03-18T07:49:10.850Z,19.87
2024-03-18T07:50:12.232Z,19.81
2024-03-18T07:51:10.958Z,19.80
2024-03-18T07:52:11.134Z,19.79
2024-03-18T07:53:11.109Z,19.80
2024-03-18T07:54:11.209Z,19.81
2024-03-18T07:55:11.281Z,19.82
2024-03-18T07:56:11.427Z,19.82
2024-03-18T07:57:11.509Z,19.83
2024-03-18T07:58:11.612Z,19.82
2024-03-18T07:59:11.669Z,19.80
2024-03-18T08:00:11.746Z,19.83
2024-03-18T08:01:11.809Z,19.84
2024-03-18T08:02:11.953Z,19.86
2024-03-18T08:03:12.056Z,19.88
2024-03-18T08:04:12.108Z,19.88
2024-03-18T08:06:04.078Z,19.89
2024-03-18T08:07:04.012Z,19.93
2024-03-18T08:08:03.999Z,19.94
2024-03-18T08:09:04.030Z,19.96
2024-03-18T08:10:04.028Z,19.98
2024-03-18T08:11:04.009Z,19.99
2024-03-18T08:12:04.005Z,19.99
2024-03-18T08:13:04.034Z,20.01
2024-03-18T08:14:04.174Z,20.02
2024-03-18T08:15:04.233Z,20.03
2024-03-18T08:16:04.363Z,20.03
2024-03-18T08:17:04.507Z,20.05
2024-03-18T08:18:04.570Z,20.07
2024-03-18T08:19:04.698Z,20.07
2024-03-18T08:20:04.860Z,20.08
2024-03-18T08:21:04.955Z,20.09
2024-03-18T08:22:13.889Z,20.10
2024-03-18T08:23:06.051Z,20.10
2024-03-18T08:24:05.033Z,20.10
2024-03-18T08:25:05.040Z,20.11
2024-03-18T08:26:05.067Z,20.11
2024-03-18T08:27:05.027Z,20.12
2024-03-18T08:28:05.126Z,20.12
2024-03-18T08:29:05.069Z,20.12
2024-03-18T08:30:05.141Z,20.13
2024-03-18T08:31:05.173Z,20.13
2024-03-18T08:32:05.251Z,20.13
2024-03-18T08:33:15.635Z,20.14
2024-03-18T08:34:06.383Z,20.14
2024-03-18T08:35:05.369Z,20.14
2024-03-18T08:36:05.385Z,20.14
2024-03-18T08:37:05.411Z,20.14
2024-03-18T08:38:05.412Z,20.14
2024-03-18T08:39:05.376Z,20.15
2024-03-18T08:40:05.398Z,20.15
2024-03-18T08:41:05.508Z,20.15
2024-03-18T08:42:05.486Z,20.15
2024-03-18T08:43:05.605Z,20.15
2024-03-18T08:44:05.815Z,20.16
2024-03-18T08:45:05.844Z,20.17
2024-03-18T08:46:05.990Z,20.17
2024-03-18T08:47:06.098Z,20.18
2024-03-18T08:48:06.182Z,20.19
2024-03-18T08:49:06.273Z,20.19
2024-03-18T08:50:07.156Z,20.19
2024-03-18T08:51:06.436Z,20.19
2024-03-18T08:52:06.470Z,20.20
2024-03-18T08:53:06.564Z,20.20
2024-03-18T08:54:06.571Z,20.19
2024-03-18T08:55:06.627Z,20.19
2024-03-18T08:56:06.675Z,20.20
2024-03-18T08:57:06.685Z,20.19
2024-03-18T08:58:06.698Z,20.20
2024-03-18T08:59:06.781Z,20.19
2024-03-18T09:00:06.874Z,20.20
2024-03-18T09:01:06.982Z,20.20
2024-03-18T09:02:07.171Z,20.21
2024-03-18T09:03:07.185Z,20.21
2024-03-18T09:04:07.302Z,20.21
2024-03-18T09:05:07.431Z,20.21
2024-03-18T09:06:07.539Z,20.23
2024-03-18T09:07:07.635Z,20.23
2024-03-18T09:08:07.784Z,20.24
2024-03-18T09:09:07.868Z,20.22
2024-03-18T09:10:07.979Z,20.22
2024-03-18T09:11:08.089Z,20.22
2024-03-18T09:12:08.223Z,20.22
2024-03-18T09:13:08.255Z,20.23
2024-03-18T09:14:08.429Z,20.23
2024-03-18T09:15:08.477Z,20.23
2024-03-18T09:16:08.566Z,20.25
2024-03-18T09:17:08.690Z,20.25
2024-03-18T09:18:08.831Z,20.25
2024-03-18T09:19:09.023Z,20.26
2024-03-18T09:20:09.092Z,20.24
2024-03-18T09:21:09.117Z,20.25
2024-03-18T09:22:09.207Z,20.25
2024-03-18T09:23:09.377Z,20.25
2024-03-18T09:24:09.397Z,20.26
2024-03-18T09:25:09.493Z,20.26
2024-03-18T09:26:09.720Z,20.26
2024-03-18T09:27:09.671Z,20.27
2024-03-18T09:28:09.760Z,20.26
2024-03-18T09:29:11.429Z,20.26
2024-03-18T09:30:09.916Z,20.28
2024-03-18T09:31:09.940Z,20.28
2024-03-18T09:32:09.986Z,20.28
2024-03-18T09:33:10.012Z,20.29
2024-03-18T09:34:10.008Z,20.29
2024-03-18T09:35:10.177Z,20.30
2024-03-18T09:36:10.371Z,20.32
2024-03-18T09:37:10.441Z,20.31
2024-03-18T09:38:10.490Z,20.31
2024-03-18T09:39:10.573Z,20.32
2024-03-18T09:40:10.783Z,20.31
2024-03-18T09:41:10.930Z,20.31
2024-03-18T09:42:11.128Z,20.32
2024-03-18T09:43:11.080Z,20.33
2024-03-18T09:44:11.153Z,20.32
2024-03-18T09:45:11.233Z,20.32
2024-03-18T09:46:11.547Z,20.32
2024-03-18T09:47:11.488Z,20.33
2024-03-18T09:48:11.584Z,20.33
2024-03-18T09:49:11.644Z,20.35
2024-03-18T09:50:11.776Z,20.37
2024-03-18T09:51:11.892Z,20.37
2024-03-18T09:52:11.982Z,20.37
2024-03-18T09:53:12.136Z,20.36
2024-03-18T09:54:12.233Z,20.37
2024-03-18T09:55:12.326Z,20.38
2024-03-18T09:56:12.481Z,20.37
2024-03-18T09:57:12.549Z,20.38
2024-03-18T09:58:12.736Z,20.38
2024-03-18T09:59:12.768Z,20.38
2024-03-18T10:00:12.913Z,20.39
2024-03-18T10:01:13.030Z,20.39
2024-03-18T10:02:13.165Z,20.38
2024-03-18T10:03:13.240Z,20.38
2024-03-18T10:04:13.640Z,20.39
2024-03-18T10:05:13.507Z,20.39
2024-03-18T10:06:13.661Z,20.39
2024-03-18T10:07:13.732Z,20.37
2024-03-18T10:08:13.877Z,20.37
2024-03-18T10:09:13.954Z,20.37
2024-03-18T10:10:14.055Z,20.37
2024-03-18T10:11:14.218Z,20.37
2024-03-18T10:12:14.322Z,20.37
2024-03-18T10:13:14.374Z,20.37
2024-03-18T10:14:14.486Z,20.36
2024-03-18T10:15:14.648Z,20.36
2024-03-18T10:16:14.720Z,20.36
2024-03-18T10:17:14.854Z,20.37
2024-03-18T10:18:14.984Z,20.37
2024-03-18T10:19:15.046Z,20.38
2024-03-18T10:20:15.171Z,20.37
2024-03-18T10:21:15.292Z,20.38
2024-03-18T10:22:15.426Z,20.38
2024-03-18T10:23:15.557Z,20.36
2024-03-18T10:24:15.591Z,20.36
2024-03-18T10:25:15.729Z,20.35
2024-03-18T10:26:15.830Z,20.36
2024-03-18T10:27:15.969Z,20.36
2024-03-18T10:28:16.054Z,20.36
2024-03-18T10:29:16.144Z,20.37
2024-03-18T10:30:16.274Z,20.36
2024-03-18T10:31:16.416Z,20.37
2024-03-18T10:32:16.464Z,20.38
2024-03-18T10:33:16.578Z,20.39
2024-03-18T10:34:16.664Z,20.38
2024-03-18T10:35:16.810Z,20.39
2024-03-18T10:36:16.883Z,20.40
2024-03-18T10:37:17.075Z,20.39
2024-03-18T10:38:17.128Z,20.40
2024-03-18T10:39:17.234Z,20.40
2024-03-18T10:40:17.402Z,20.39
2024-03-18T10:41:17.458Z,20.38
2024-03-18T10:42:17.566Z,20.36
2024-03-18T10:43:17.686Z,20.37
2024-03-18T10:44:17.779Z,20.37
2024-03-18T10:45:17.886Z,20.37
2024-03-18T10:46:18.023Z,20.38
2024-03-18T10:47:18.278Z,20.35
2024-03-18T10:48:18.195Z,20.34
2024-03-18T10:49:18.315Z,20.32
2024-03-18T10:50:18.370Z,20.28
2024-03-18T10:51:18.464Z,20.25
2024-03-18T10:52:18.566Z,20.26
2024-03-18T10:53:18.614Z,20.24
2024-03-18T10:54:18.704Z,20.24
2024-03-18T10:55:20.164Z,20.23
2024-03-18T10:56:18.824Z,20.21
2024-03-18T10:57:19.014Z,20.19
2024-03-18T10:58:18.882Z,20.17
2024-03-18T10:59:18.993Z,20.16
2024-03-18T11:00:18.963Z,20.14
2024-03-18T11:01:19.020Z,20.12
2024-03-18T11:02:19.033Z,20.10
2024-03-18T11:03:19.081Z,20.09
2024-03-18T11:04:19.108Z,20.08
2024-03-18T11:05:19.142Z,20.07
2024-03-18T11:06:23.973Z,20.07
2024-03-18T11:07:19.200Z,20.05
2024-03-18T11:08:19.195Z,20.05
2024-03-18T11:09:19.187Z,20.03
2024-03-18T11:10:19.207Z,20.02
2024-03-18T11:11:19.200Z,20.00
2024-03-18T11:12:19.238Z,19.99
2024-03-18T11:13:19.272Z,19.98
2024-03-18T11:14:19.298Z,19.97
2024-03-18T11:15:19.256Z,19.95
2024-03-18T11:16:19.240Z,19.96
2024-03-18T11:17:19.324Z,19.95
2024-03-18T11:18:19.246Z,19.94
2024-03-18T11:19:19.264Z,19.93
2024-03-18T11:20:19.236Z,19.93
2024-03-18T11:21:19.275Z,19.92
2024-03-18T11:22:19.922Z,19.91
2024-03-18T11:23:19.249Z,19.90
2024-03-18T11:24:19.258Z,19.89
2024-03-18T11:25:19.289Z,19.87
2024-03-18T11:26:19.275Z,19.84
2024-03-18T11:27:19.336Z,19.81
2024-03-18T11:28:19.383Z,19.81
2024-03-18T11:29:19.474Z,19.79
2024-03-18T11:30:19.544Z,19.78
2024-03-18T11:31:19.651Z,19.77
2024-03-18T11:32:19.825Z,19.78
2024-03-18T11:33:19.816Z,19.77
2024-03-18T11:34:19.873Z,19.77
2024-03-18T11:35:19.951Z,19.77
2024-03-18T11:36:20.192Z,19.77
2024-03-18T11:37:20.164Z,19.77
2024-03-18T11:38:20.223Z,19.78
2024-03-18T11:39:20.336Z,19.72
2024-03-18T11:40:20.396Z,19.67
2024-03-18T11:41:20.469Z,19.65
2024-03-18T11:42:20.610Z,19.65
2024-03-18T11:43:20.649Z,19.64
2024-03-18T11:44:20.718Z,19.61
2024-03-18T11:45:20.775Z,19.62
2024-03-18T11:46:20.852Z,19.64
2024-03-18T11:47:20.980Z,19.67
2024-03-18T11:48:20.954Z,19.71
2024-03-18T11:49:21.095Z,19.77
2024-03-18T11:50:21.114Z,19.83
2024-03-18T11:51:21.228Z,19.89
2024-03-18T11:52:21.307Z,19.95
2024-03-18T11:53:21.407Z,19.98
2024-03-18T11:54:21.452Z,20.02
2024-03-18T11:55:21.657Z,20.07
2024-03-18T11:56:21.646Z,20.09
2024-03-18T11:57:21.763Z,20.12
2024-03-18T11:58:21.929Z,20.12
2024-03-18T11:59:22.018Z,20.16
2024-03-18T12:00:22.162Z,20.20
2024-03-18T12:01:22.306Z,20.24
2024-03-18T12:02:22.423Z,20.24
2024-03-18T12:03:22.552Z,20.27
2024-03-18T12:04:22.751Z,20.30
2024-03-18T12:05:22.930Z,20.32
2024-03-18T12:06:22.943Z,20.35
2024-03-18T12:07:23.147Z,20.37
2024-03-18T12:08:23.192Z,20.37
2024-03-18T12:09:23.333Z,20.40
2024-03-18T12:10:23.436Z,20.41
2024-03-18T12:11:23.588Z,20.41
2024-03-18T12:12:23.680Z,20.42
2024-03-18T12:13:23.803Z,20.43
2024-03-18T12:14:23.918Z,20.43
2024-03-18T12:15:24.237Z,20.45
2024-03-18T12:16:24.146Z,20.45
2024-03-18T12:17:24.281Z,20.47
2024-03-18T12:18:24.377Z,20.49
2024-03-18T12:19:24.499Z,20.50
2024-03-18T12:20:24.598Z,20.51
2024-03-18T12:21:24.724Z,20.51
2024-03-18T12:22:24.824Z,20.52
2024-03-18T12:23:24.943Z,20.53
2024-03-18T12:24:25.047Z,20.53
2024-03-18T12:25:25.171Z,20.54
2024-03-18T12:26:25.271Z,20.54
2024-03-18T12:27:25.397Z,20.54
2024-03-18T12:28:25.493Z,20.54
2024-03-18T12:29:25.605Z,20.54
2024-03-18T12:30:25.741Z,20.55
2024-03-18T12:31:25.855Z,20.55
2024-03-18T12:32:25.962Z,20.55
2024-03-18T12:33:26.061Z,20.56
2024-03-18T12:34:26.206Z,20.56
2024-03-18T12:35:26.286Z,20.56
2024-03-18T12:36:26.398Z,20.54
2024-03-18T12:37:27.775Z,20.44
2024-03-18T12:38:26.648Z,20.42
2024-03-18T12:39:26.810Z,20.37
2024-03-18T12:40:26.916Z,20.32
2024-03-18T12:41:27.038Z,20.28
2024-03-18T12:42:27.164Z,20.24
2024-03-18T12:43:27.282Z,20.20
2024-03-18T12:44:27.389Z,20.17
2024-03-18T12:45:31.077Z,20.15
2024-03-18T12:46:27.495Z,20.13
2024-03-18T12:47:27.511Z,20.10
2024-03-18T12:48:27.496Z,20.09
2024-03-18T12:49:27.493Z,20.07
2024-03-18T12:50:27.516Z,20.06
2024-03-18T12:51:27.509Z,20.05
2024-03-18T12:52:27.511Z,20.04
2024-03-18T12:53:30.656Z,20.03
2024-03-18T12:54:27.506Z,20.01
2024-03-18T12:55:27.522Z,20.00